sensor_id;sensor_type;location;lat;lon;timestamp;P1;durP1;ratioP1;P2;durP2;ratioP2
62933;SDS011;49038;47.600;19.242;2023-12-20T00:01:48;4.25;;;3.60;;
62933;SDS011;49038;47.600;19.242;2023-12-20T00:04:51;3.78;;;3.53;;
62933;SDS011;49038;47.600;19.242;2023-12-20T00:07:53;6.05;;;2.78;;
62933;SDS011;49038;47.600;19.242;2023-12-20T00:10:56;5.87;;;4.30;;
62933;SDS011;49038;47.600;19.242;2023-12-20T00:13:58;15.20;;;6.30;;
62933;SDS011;49038;47.600;19.242;2023-12-20T00:17:00;3.65;;;3.20;;
62933;SDS011;49038;47.600;19.242;2023-12-20T00:20:02;5.00;;;4.37;;
62933;SDS011;49038;47.600;19.242;2023-12-20T00:23:05;13.57;;;6.05;;
62933;SDS011;49038;47.600;19.242;2023-12-20T00:26:07;5.40;;;4.87;;
62933;SDS011;49038;47.600;19.242;2023-12-20T00:29:09;3.60;;;3.17;;
62933;SDS011;49038;47.600;19.242;2023-12-20T00:32:11;4.07;;;3.72;;
62933;SDS011;49038;47.600;19.242;2023-12-20T00:35:14;5.62;;;4.40;;
62933;SDS011;49038;47.600;19.242;2023-12-20T00:38:16;19.65;;;4.40;;
62933;SDS011;49038;47.600;19.242;2023-12-20T00:41:18;5.20;;;4.43;;
62933;SDS011;49038;47.600;19.242;2023-12-20T00:44:21;4.45;;;4.15;;
62933;SDS011;49038;47.600;19.242;2023-12-20T00:47:23;4.37;;;4.07;;
62933;SDS011;49038;47.600;19.242;2023-12-20T00:50:25;5.97;;;3.47;;
62933;SDS011;49038;47.600;19.242;2023-12-20T00:53:31;6.78;;;4.07;;
62933;SDS011;49038;47.600;19.242;2023-12-20T00:56:33;5.10;;;4.30;;
62933;SDS011;49038;47.600;19.242;2023-12-20T00:59:35;10.95;;;5.78;;
62933;SDS011;49038;47.600;19.242;2023-12-20T01:02:37;11.00;;;5.53;;
62933;SDS011;49038;47.600;19.242;2023-12-20T01:05:40;6.50;;;4.40;;
62933;SDS011;49038;47.600;19.242;2023-12-20T01:08:42;5.68;;;4.62;;
62933;SDS011;49038;47.600;19.242;2023-12-20T01:11:44;11.45;;;7.20;;
62933;SDS011;49038;47.600;19.242;2023-12-20T01:14:48;7.30;;;4.70;;
62933;SDS011;49038;47.600;19.242;2023-12-20T01:17:51;6.30;;;5.20;;
62933;SDS011;49038;47.600;19.242;2023-12-20T01:20:53;9.40;;;6.32;;
62933;SDS011;49038;47.600;19.242;2023-12-20T01:23:55;5.18;;;3.40;;
62933;SDS011;49038;47.600;19.242;2023-12-20T01:26:58;8.73;;;7.32;;
62933;SDS011;49038;47.600;19.242;2023-12-20T01:30:00;11.15;;;6.18;;
62933;SDS011;49038;47.600;19.242;2023-12-20T01:33:02;14.90;;;6.28;;
62933;SDS011;49038;47.600;19.242;2023-12-20T01:36:05;5.93;;;4.30;;
62933;SDS011;49038;47.600;19.242;2023-12-20T01:39:07;14.45;;;7.18;;
62933;SDS011;49038;47.600;19.242;2023-12-20T01:42:25;9.95;;;7.85;;
62933;SDS011;49038;47.600;19.242;2023-12-20T01:45:28;9.93;;;5.53;;
62933;SDS011;49038;47.600;19.242;2023-12-20T01:48:30;7.15;;;4.72;;
62933;SDS011;49038;47.600;19.242;2023-12-20T01:51:34;10.65;;;6.07;;
62933;SDS011;49038;47.600;19.242;2023-12-20T01:54:36;6.70;;;5.05;;
62933;SDS011;49038;47.600;19.242;2023-12-20T01:57:39;14.43;;;7.10;;
62933;SDS011;49038;47.600;19.242;2023-12-20T02:00:45;14.75;;;6.93;;
62933;SDS011;49038;47.600;19.242;2023-12-20T02:03:48;8.30;;;6.25;;
62933;SDS011;49038;47.600;19.242;2023-12-20T02:06:52;7.20;;;5.12;;
62933;SDS011;49038;47.600;19.242;2023-12-20T02:09:54;6.60;;;5.15;;
62933;SDS011;49038;47.600;19.242;2023-12-20T02:12:57;8.40;;;6.32;;
62933;SDS011;49038;47.600;19.242;2023-12-20T02:16:00;13.32;;;6.47;;
62933;SDS011;49038;47.600;19.242;2023-12-20T02:19:03;11.07;;;7.82;;
62933;SDS011;49038;47.600;19.242;2023-12-20T02:22:10;10.77;;;7.20;;
62933;SDS011;49038;47.600;19.242;2023-12-20T02:25:12;7.22;;;4.90;;
62933;SDS011;49038;47.600;19.242;2023-12-20T02:28:15;29.52;;;6.62;;
62933;SDS011;49038;47.600;19.242;2023-12-20T02:31:20;17.52;;;8.25;;
62933;SDS011;49038;47.600;19.242;2023-12-20T02:34:23;8.80;;;6.32;;
62933;SDS011;49038;47.600;19.242;2023-12-20T02:37:25;27.33;;;8.68;;
62933;SDS011;49038;47.600;19.242;2023-12-20T02:40:27;12.98;;;6.37;;
62933;SDS011;49038;47.600;19.242;2023-12-20T02:43:30;16.45;;;6.50;;
62933;SDS011;49038;47.600;19.242;2023-12-20T02:46:32;11.23;;;7.90;;
62933;SDS011;49038;47.600;19.242;2023-12-20T02:49:34;8.23;;;6.25;;
62933;SDS011;49038;47.600;19.242;2023-12-20T02:52:36;8.55;;;5.85;;
62933;SDS011;49038;47.600;19.242;2023-12-20T02:55:39;9.98;;;6.70;;
62933;SDS011;49038;47.600;19.242;2023-12-20T02:58:41;15.40;;;8.90;;
62933;SDS011;49038;47.600;19.242;2023-12-20T03:01:44;10.80;;;8.18;;
62933;SDS011;49038;47.600;19.242;2023-12-20T03:04:47;10.30;;;5.68;;
62933;SDS011;49038;47.600;19.242;2023-12-20T03:07:50;9.45;;;5.50;;
62933;SDS011;49038;47.600;19.242;2023-12-20T03:10:52;10.32;;;7.00;;
62933;SDS011;49038;47.600;19.242;2023-12-20T03:13:55;21.65;;;7.07;;
62933;SDS011;49038;47.600;19.242;2023-12-20T03:16:58;15.70;;;9.27;;
62933;SDS011;49038;47.600;19.242;2023-12-20T03:20:01;39.80;;;8.10;;
62933;SDS011;49038;47.600;19.242;2023-12-20T03:23:04;13.88;;;8.50;;
62933;SDS011;49038;47.600;19.242;2023-12-20T03:26:09;15.57;;;7.80;;
62933;SDS011;49038;47.600;19.242;2023-12-20T03:29:11;40.90;;;8.20;;
62933;SDS011;49038;47.600;19.242;2023-12-20T03:32:13;18.25;;;8.80;;
62933;SDS011;49038;47.600;19.242;2023-12-20T03:35:16;12.43;;;8.07;;
62933;SDS011;49038;47.600;19.242;2023-12-20T03:38:18;9.38;;;7.68;;
62933;SDS011;49038;47.600;19.242;2023-12-20T03:41:20;21.73;;;8.60;;
62933;SDS011;49038;47.600;19.242;2023-12-20T03:44:23;11.27;;;6.95;;
62933;SDS011;49038;47.600;19.242;2023-12-20T03:47:25;27.55;;;8.05;;
62933;SDS011;49038;47.600;19.242;2023-12-20T03:50:28;34.90;;;8.88;;
62933;SDS011;49038;47.600;19.242;2023-12-20T03:53:31;16.33;;;9.13;;
62933;SDS011;49038;47.600;19.242;2023-12-20T03:56:33;7.25;;;6.55;;
62933;SDS011;49038;47.600;19.242;2023-12-20T03:59:36;9.57;;;7.45;;
62933;SDS011;49038;47.600;19.242;2023-12-20T04:02:39;7.75;;;6.10;;
62933;SDS011;49038;47.600;19.242;2023-12-20T04:05:41;10.43;;;7.25;;
62933;SDS011;49038;47.600;19.242;2023-12-20T04:08:44;7.10;;;5.62;;
62933;SDS011;49038;47.600;19.242;2023-12-20T04:11:46;23.70;;;8.27;;
62933;SDS011;49038;47.600;19.242;2023-12-20T04:14:48;9.82;;;6.53;;
62933;SDS011;49038;47.600;19.242;2023-12-20T04:17:50;11.15;;;6.00;;
62933;SDS011;49038;47.600;19.242;2023-12-20T04:20:53;14.07;;;6.47;;
62933;SDS011;49038;47.600;19.242;2023-12-20T04:23:55;7.10;;;5.68;;
62933;SDS011;49038;47.600;19.242;2023-12-20T04:26:57;11.77;;;7.47;;
62933;SDS011;49038;47.600;19.242;2023-12-20T04:30:00;8.10;;;6.90;;
62933;SDS011;49038;47.600;19.242;2023-12-20T04:33:02;10.55;;;7.95;;
62933;SDS011;49038;47.600;19.242;2023-12-20T04:36:05;8.57;;;6.12;;
62933;SDS011;49038;47.600;19.242;2023-12-20T04:39:07;13.07;;;7.30;;
62933;SDS011;49038;47.600;19.242;2023-12-20T04:42:09;7.03;;;6.35;;
62933;SDS011;49038;47.600;19.242;2023-12-20T04:45:12;8.45;;;6.68;;
62933;SDS011;49038;47.600;19.242;2023-12-20T04:48:15;9.90;;;7.07;;
62933;SDS011;49038;47.600;19.242;2023-12-20T04:51:18;39.65;;;7.55;;
62933;SDS011;49038;47.600;19.242;2023-12-20T04:54:20;11.07;;;7.18;;
62933;SDS011;49038;47.600;19.242;2023-12-20T04:57:22;11.88;;;7.15;;
62933;SDS011;49038;47.600;19.242;2023-12-20T05:00:24;9.73;;;7.65;;
62933;SDS011;49038;47.600;19.242;2023-12-20T05:03:27;8.73;;;5.00;;
62933;SDS011;49038;47.600;19.242;2023-12-20T05:06:29;12.50;;;9.07;;
62933;SDS011;49038;47.600;19.242;2023-12-20T05:09:31;10.05;;;7.57;;
62933;SDS011;49038;47.600;19.242;2023-12-20T05:12:36;14.27;;;8.10;;
62933;SDS011;49038;47.600;19.242;2023-12-20T05:15:38;20.02;;;8.60;;
62933;SDS011;49038;47.600;19.242;2023-12-20T05:18:41;13.98;;;8.55;;
62933;SDS011;49038;47.600;19.242;2023-12-20T05:21:43;9.73;;;6.87;;
62933;SDS011;49038;47.600;19.242;2023-12-20T05:24:45;9.60;;;7.57;;
62933;SDS011;49038;47.600;19.242;2023-12-20T05:27:48;11.98;;;6.72;;
62933;SDS011;49038;47.600;19.242;2023-12-20T05:30:51;10.85;;;6.85;;
62933;SDS011;49038;47.600;19.242;2023-12-20T05:33:53;12.80;;;8.50;;
62933;SDS011;49038;47.600;19.242;2023-12-20T05:36:56;18.55;;;7.43;;
62933;SDS011;49038;47.600;19.242;2023-12-20T05:39:59;11.25;;;7.20;;
62933;SDS011;49038;47.600;19.242;2023-12-20T05:43:02;8.50;;;7.32;;
62933;SDS011;49038;47.600;19.242;2023-12-20T05:46:04;30.35;;;9.93;;
62933;SDS011;49038;47.600;19.242;2023-12-20T05:49:07;11.85;;;7.35;;
62933;SDS011;49038;47.600;19.242;2023-12-20T05:52:09;12.68;;;7.60;;
62933;SDS011;49038;47.600;19.242;2023-12-20T05:55:12;22.58;;;10.85;;
62933;SDS011;49038;47.600;19.242;2023-12-20T05:58:14;7.78;;;6.22;;
62933;SDS011;49038;47.600;19.242;2023-12-20T06:01:16;11.48;;;6.35;;
62933;SDS011;49038;47.600;19.242;2023-12-20T06:04:21;9.75;;;6.05;;
62933;SDS011;49038;47.600;19.242;2023-12-20T06:07:24;9.30;;;7.43;;
62933;SDS011;49038;47.600;19.242;2023-12-20T06:10:27;8.88;;;5.35;;
62933;SDS011;49038;47.600;19.242;2023-12-20T06:13:29;12.30;;;6.87;;
62933;SDS011;49038;47.600;19.242;2023-12-20T06:16:32;10.63;;;7.00;;
62933;SDS011;49038;47.600;19.242;2023-12-20T06:19:34;12.05;;;7.12;;
62933;SDS011;49038;47.600;19.242;2023-12-20T06:22:36;10.50;;;8.00;;
62933;SDS011;49038;47.600;19.242;2023-12-20T06:25:39;10.50;;;7.78;;
62933;SDS011;49038;47.600;19.242;2023-12-20T06:28:41;9.02;;;5.97;;
62933;SDS011;49038;47.600;19.242;2023-12-20T06:31:43;7.87;;;6.28;;
62933;SDS011;49038;47.600;19.242;2023-12-20T06:34:45;10.23;;;7.07;;
62933;SDS011;49038;47.600;19.242;2023-12-20T06:37:48;7.90;;;6.60;;
62933;SDS011;49038;47.600;19.242;2023-12-20T06:40:51;9.68;;;7.25;;
62933;SDS011;49038;47.600;19.242;2023-12-20T06:43:53;13.55;;;6.93;;
62933;SDS011;49038;47.600;19.242;2023-12-20T06:46:55;11.73;;;7.20;;
62933;SDS011;49038;47.600;19.242;2023-12-20T06:49:57;17.45;;;9.38;;
62933;SDS011;49038;47.600;19.242;2023-12-20T06:53:00;16.42;;;6.75;;
62933;SDS011;49038;47.600;19.242;2023-12-20T06:56:11;12.98;;;8.05;;
62933;SDS011;49038;47.600;19.242;2023-12-20T06:59:20;19.65;;;7.75;;
62933;SDS011;49038;47.600;19.242;2023-12-20T07:02:22;10.98;;;5.95;;
62933;SDS011;49038;47.600;19.242;2023-12-20T07:05:25;10.00;;;7.00;;
62933;SDS011;49038;47.600;19.242;2023-12-20T07:08:27;7.30;;;5.12;;
62933;SDS011;49038;47.600;19.242;2023-12-20T07:11:29;7.43;;;6.68;;
62933;SDS011;49038;47.600;19.242;2023-12-20T07:14:32;11.00;;;6.87;;
62933;SDS011;49038;47.600;19.242;2023-12-20T07:17:34;10.93;;;7.03;;
62933;SDS011;49038;47.600;19.242;2023-12-20T07:20:36;12.45;;;7.05;;
62933;SDS011;49038;47.600;19.242;2023-12-20T07:23:38;8.73;;;6.57;;
62933;SDS011;49038;47.600;19.242;2023-12-20T07:26:41;6.57;;;5.20;;
62933;SDS011;49038;47.600;19.242;2023-12-20T07:29:43;9.00;;;6.07;;
62933;SDS011;49038;47.600;19.242;2023-12-20T07:32:45;10.93;;;6.25;;
62933;SDS011;49038;47.600;19.242;2023-12-20T07:35:49;6.12;;;5.05;;
62933;SDS011;49038;47.600;19.242;2023-12-20T07:38:53;8.50;;;7.18;;
62933;SDS011;49038;47.600;19.242;2023-12-20T07:41:56;7.30;;;6.50;;
62933;SDS011;49038;47.600;19.242;2023-12-20T07:44:58;10.52;;;5.97;;
62933;SDS011;49038;47.600;19.242;2023-12-20T07:48:01;23.80;;;7.93;;
62933;SDS011;49038;47.600;19.242;2023-12-20T07:51:04;8.32;;;4.82;;
62933;SDS011;49038;47.600;19.242;2023-12-20T07:54:07;11.18;;;5.45;;
62933;SDS011;49038;47.600;19.242;2023-12-20T07:57:10;10.32;;;6.15;;
62933;SDS011;49038;47.600;19.242;2023-12-20T08:00:14;11.43;;;6.40;;
62933;SDS011;49038;47.600;19.242;2023-12-20T08:03:17;8.18;;;6.37;;
62933;SDS011;49038;47.600;19.242;2023-12-20T08:06:19;7.25;;;6.60;;
62933;SDS011;49038;47.600;19.242;2023-12-20T08:09:22;8.93;;;4.60;;
62933;SDS011;49038;47.600;19.242;2023-12-20T08:12:24;6.62;;;5.35;;
62933;SDS011;49038;47.600;19.242;2023-12-20T08:15:29;7.90;;;5.30;;
62933;SDS011;49038;47.600;19.242;2023-12-20T08:18:31;10.90;;;6.25;;
62933;SDS011;49038;47.600;19.242;2023-12-20T08:21:34;8.75;;;5.32;;
62933;SDS011;49038;47.600;19.242;2023-12-20T08:24:39;7.22;;;5.95;;
62933;SDS011;49038;47.600;19.242;2023-12-20T08:27:41;6.22;;;4.22;;
62933;SDS011;49038;47.600;19.242;2023-12-20T08:30:44;9.57;;;6.07;;
62933;SDS011;49038;47.600;19.242;2023-12-20T08:33:47;15.43;;;8.70;;
62933;SDS011;49038;47.600;19.242;2023-12-20T08:36:50;15.48;;;10.90;;
62933;SDS011;49038;47.600;19.242;2023-12-20T08:39:53;49.85;;;17.65;;
62933;SDS011;49038;47.600;19.242;2023-12-20T08:42:55;20.62;;;13.70;;
62933;SDS011;49038;47.600;19.242;2023-12-20T08:45:57;29.73;;;15.25;;
62933;SDS011;49038;47.600;19.242;2023-12-20T08:49:00;27.65;;;12.88;;
62933;SDS011;49038;47.600;19.242;2023-12-20T08:52:02;16.05;;;6.50;;
62933;SDS011;49038;47.600;19.242;2023-12-20T08:55:05;8.48;;;7.22;;
62933;SDS011;49038;47.600;19.242;2023-12-20T08:58:07;7.85;;;5.60;;
62933;SDS011;49038;47.600;19.242;2023-12-20T09:01:10;6.53;;;5.37;;
62933;SDS011;49038;47.600;19.242;2023-12-20T09:04:12;6.25;;;5.18;;
62933;SDS011;49038;47.600;19.242;2023-12-20T09:07:24;5.82;;;4.47;;
62933;SDS011;49038;47.600;19.242;2023-12-20T09:10:27;6.82;;;5.07;;
62933;SDS011;49038;47.600;19.242;2023-12-20T09:13:30;6.80;;;5.12;;
62933;SDS011;49038;47.600;19.242;2023-12-20T09:16:34;9.45;;;5.12;;
62933;SDS011;49038;47.600;19.242;2023-12-20T09:19:36;9.05;;;4.85;;
62933;SDS011;49038;47.600;19.242;2023-12-20T09:22:38;13.15;;;6.72;;
62933;SDS011;49038;47.600;19.242;2023-12-20T09:25:41;8.65;;;6.30;;
62933;SDS011;49038;47.600;19.242;2023-12-20T09:28:43;12.80;;;7.50;;
62933;SDS011;49038;47.600;19.242;2023-12-20T09:31:45;10.90;;;6.15;;
62933;SDS011;49038;47.600;19.242;2023-12-20T09:34:48;7.32;;;5.53;;
62933;SDS011;49038;47.600;19.242;2023-12-20T09:37:51;15.23;;;8.00;;
62933;SDS011;49038;47.600;19.242;2023-12-20T09:40:53;9.32;;;6.47;;
62933;SDS011;49038;47.600;19.242;2023-12-20T09:43:57;8.30;;;6.82;;
62933;SDS011;49038;47.600;19.242;2023-12-20T09:47:04;12.23;;;8.20;;
62933;SDS011;49038;47.600;19.242;2023-12-20T09:50:07;13.93;;;7.72;;
62933;SDS011;49038;47.600;19.242;2023-12-20T09:53:10;10.30;;;6.35;;
62933;SDS011;49038;47.600;19.242;2023-12-20T09:56:13;6.30;;;5.62;;
62933;SDS011;49038;47.600;19.242;2023-12-20T09:59:16;10.93;;;5.68;;
62933;SDS011;49038;47.600;19.242;2023-12-20T10:02:19;17.10;;;6.43;;
62933;SDS011;49038;47.600;19.242;2023-12-20T10:05:30;11.18;;;6.32;;
62933;SDS011;49038;47.600;19.242;2023-12-20T10:08:34;10.63;;;7.20;;
62933;SDS011;49038;47.600;19.242;2023-12-20T10:11:36;22.87;;;6.47;;
62933;SDS011;49038;47.600;19.242;2023-12-20T10:14:39;11.80;;;7.32;;
62933;SDS011;49038;47.600;19.242;2023-12-20T10:17:41;7.07;;;5.35;;
62933;SDS011;49038;47.600;19.242;2023-12-20T10:20:44;15.02;;;7.28;;
62933;SDS011;49038;47.600;19.242;2023-12-20T10:23:46;16.83;;;8.70;;
62933;SDS011;49038;47.600;19.242;2023-12-20T10:26:49;17.83;;;10.07;;
62933;SDS011;49038;47.600;19.242;2023-12-20T10:30:05;14.27;;;7.80;;
62933;SDS011;49038;47.600;19.242;2023-12-20T10:33:08;13.68;;;9.18;;
62933;SDS011;49038;47.600;19.242;2023-12-20T10:36:12;15.13;;;8.93;;
62933;SDS011;49038;47.600;19.242;2023-12-20T10:39:15;17.00;;;8.45;;
62933;SDS011;49038;47.600;19.242;2023-12-20T10:42:20;22.05;;;10.27;;
62933;SDS011;49038;47.600;19.242;2023-12-20T10:45:23;16.08;;;10.32;;
62933;SDS011;49038;47.600;19.242;2023-12-20T10:48:25;18.67;;;11.68;;
62933;SDS011;49038;47.600;19.242;2023-12-20T10:51:32;15.95;;;10.52;;
62933;SDS011;49038;47.600;19.242;2023-12-20T10:54:36;21.58;;;11.00;;
62933;SDS011;49038;47.600;19.242;2023-12-20T10:57:42;15.90;;;10.43;;
62933;SDS011;49038;47.600;19.242;2023-12-20T11:00:45;15.90;;;11.45;;
62933;SDS011;49038;47.600;19.242;2023-12-20T11:03:50;13.90;;;10.07;;
62933;SDS011;49038;47.600;19.242;2023-12-20T11:07:03;17.25;;;10.13;;
62933;SDS011;49038;47.600;19.242;2023-12-20T11:10:23;17.15;;;9.77;;
62933;SDS011;49038;47.600;19.242;2023-12-20T11:13:33;18.48;;;10.68;;
62933;SDS011;49038;47.600;19.242;2023-12-20T11:16:38;11.90;;;8.55;;
62933;SDS011;49038;47.600;19.242;2023-12-20T11:22:57;16.00;;;11.07;;
62933;SDS011;49038;47.600;19.242;2023-12-20T11:26:00;23.42;;;13.45;;
62933;SDS011;49038;47.600;19.242;2023-12-20T11:32:31;14.13;;;9.45;;
62933;SDS011;49038;47.600;19.242;2023-12-20T11:35:35;14.48;;;10.95;;
62933;SDS011;49038;47.600;19.242;2023-12-20T11:38:39;13.82;;;8.60;;
62933;SDS011;49038;47.600;19.242;2023-12-20T11:41:56;17.65;;;9.35;;
62933;SDS011;49038;47.600;19.242;2023-12-20T11:44:59;13.05;;;8.10;;
62933;SDS011;49038;47.600;19.242;2023-12-20T11:48:01;15.65;;;8.93;;
62933;SDS011;49038;47.600;19.242;2023-12-20T11:51:10;21.87;;;9.90;;
62933;SDS011;49038;47.600;19.242;2023-12-20T11:54:14;20.12;;;9.98;;
62933;SDS011;49038;47.600;19.242;2023-12-20T11:57:17;13.30;;;7.75;;
62933;SDS011;49038;47.600;19.242;2023-12-20T12:00:19;10.80;;;8.23;;
62933;SDS011;49038;47.600;19.242;2023-12-20T12:03:22;10.43;;;6.65;;
62933;SDS011;49038;47.600;19.242;2023-12-20T12:06:25;18.10;;;9.23;;
62933;SDS011;49038;47.600;19.242;2023-12-20T12:09:28;13.15;;;8.23;;
62933;SDS011;49038;47.600;19.242;2023-12-20T12:12:30;13.15;;;6.95;;
62933;SDS011;49038;47.600;19.242;2023-12-20T12:15:32;14.65;;;8.57;;
62933;SDS011;49038;47.600;19.242;2023-12-20T12:18:35;14.18;;;9.63;;
62933;SDS011;49038;47.600;19.242;2023-12-20T12:21:37;22.45;;;8.90;;
62933;SDS011;49038;47.600;19.242;2023-12-20T12:24:40;11.43;;;7.28;;
62933;SDS011;49038;47.600;19.242;2023-12-20T12:27:43;9.30;;;6.45;;
62933;SDS011;49038;47.600;19.242;2023-12-20T12:30:58;6.45;;;4.65;;
62933;SDS011;49038;47.600;19.242;2023-12-20T12:34:01;7.72;;;5.00;;
62933;SDS011;49038;47.600;19.242;2023-12-20T12:37:03;7.37;;;4.82;;
62933;SDS011;49038;47.600;19.242;2023-12-20T12:40:06;17.00;;;6.95;;
62933;SDS011;49038;47.600;19.242;2023-12-20T12:43:12;17.77;;;4.70;;
62933;SDS011;49038;47.600;19.242;2023-12-20T12:46:15;12.70;;;6.12;;
62933;SDS011;49038;47.600;19.242;2023-12-20T12:49:18;10.50;;;6.50;;
62933;SDS011;49038;47.600;19.242;2023-12-20T12:52:20;16.37;;;10.45;;
62933;SDS011;49038;47.600;19.242;2023-12-20T12:55:22;8.70;;;6.28;;
62933;SDS011;49038;47.600;19.242;2023-12-20T12:58:24;6.50;;;3.65;;
62933;SDS011;49038;47.600;19.242;2023-12-20T13:01:28;4.12;;;3.40;;
62933;SDS011;49038;47.600;19.242;2023-12-20T13:04:30;4.75;;;3.67;;
62933;SDS011;49038;47.600;19.242;2023-12-20T13:07:33;5.82;;;3.37;;
62933;SDS011;49038;47.600;19.242;2023-12-20T13:10:36;3.25;;;2.72;;
62933;SDS011;49038;47.600;19.242;2023-12-20T13:13:38;5.18;;;4.45;;
62933;SDS011;49038;47.600;19.242;2023-12-20T13:16:41;7.43;;;4.20;;
62933;SDS011;49038;47.600;19.242;2023-12-20T13:19:43;4.12;;;2.83;;
62933;SDS011;49038;47.600;19.242;2023-12-20T13:22:45;6.40;;;4.03;;
62933;SDS011;49038;47.600;19.242;2023-12-20T13:25:48;3.25;;;2.95;;
62933;SDS011;49038;47.600;19.242;2023-12-20T13:28:50;5.35;;;4.05;;
62933;SDS011;49038;47.600;19.242;2023-12-20T13:31:53;7.35;;;3.10;;
62933;SDS011;49038;47.600;19.242;2023-12-20T13:34:55;5.53;;;3.22;;
62933;SDS011;49038;47.600;19.242;2023-12-20T13:37:58;3.72;;;2.90;;
62933;SDS011;49038;47.600;19.242;2023-12-20T13:41:01;4.25;;;3.30;;
62933;SDS011;49038;47.600;19.242;2023-12-20T13:44:03;3.62;;;3.20;;
62933;SDS011;49038;47.600;19.242;2023-12-20T13:47:05;2.90;;;2.47;;
62933;SDS011;49038;47.600;19.242;2023-12-20T13:50:08;2.58;;;2.37;;
62933;SDS011;49038;47.600;19.242;2023-12-20T13:53:10;4.10;;;3.70;;
62933;SDS011;49038;47.600;19.242;2023-12-20T13:56:13;5.32;;;3.25;;
62933;SDS011;49038;47.600;19.242;2023-12-20T13:59:15;2.95;;;2.70;;
62933;SDS011;49038;47.600;19.242;2023-12-20T14:02:18;5.57;;;3.55;;
62933;SDS011;49038;47.600;19.242;2023-12-20T14:05:20;3.65;;;3.25;;
62933;SDS011;49038;47.600;19.242;2023-12-20T14:08:27;3.05;;;2.80;;
62933;SDS011;49038;47.600;19.242;2023-12-20T14:11:30;4.03;;;2.67;;
62933;SDS011;49038;47.600;19.242;2023-12-20T14:14:32;2.45;;;2.25;;
62933;SDS011;49038;47.600;19.242;2023-12-20T14:17:34;3.28;;;2.97;;
62933;SDS011;49038;47.600;19.242;2023-12-20T14:20:37;6.12;;;2.97;;
62933;SDS011;49038;47.600;19.242;2023-12-20T14:23:41;4.97;;;2.75;;
62933;SDS011;49038;47.600;19.242;2023-12-20T14:26:47;2.92;;;2.40;;
62933;SDS011;49038;47.600;19.242;2023-12-20T14:29:50;2.58;;;2.20;;
62933;SDS011;49038;47.600;19.242;2023-12-20T14:32:52;2.17;;;1.98;;
62933;SDS011;49038;47.600;19.242;2023-12-20T14:35:54;1.80;;;1.70;;
62933;SDS011;49038;47.600;19.242;2023-12-20T14:38:57;3.22;;;2.60;;
62933;SDS011;49038;47.600;19.242;2023-12-20T14:41:59;2.08;;;1.75;;
62933;SDS011;49038;47.600;19.242;2023-12-20T14:45:01;2.37;;;1.75;;
62933;SDS011;49038;47.600;19.242;2023-12-20T14:48:03;2.90;;;2.67;;
62933;SDS011;49038;47.600;19.242;2023-12-20T14:51:07;4.68;;;3.20;;
62933;SDS011;49038;47.600;19.242;2023-12-20T14:54:09;2.83;;;2.47;;
62933;SDS011;49038;47.600;19.242;2023-12-20T14:57:12;3.60;;;2.72;;
62933;SDS011;49038;47.600;19.242;2023-12-20T15:00:14;3.53;;;3.22;;
62933;SDS011;49038;47.600;19.242;2023-12-20T15:03:18;2.58;;;2.37;;
62933;SDS011;49038;47.600;19.242;2023-12-20T15:06:21;3.28;;;2.70;;
62933;SDS011;49038;47.600;19.242;2023-12-20T15:09:24;3.15;;;2.53;;
62933;SDS011;49038;47.600;19.242;2023-12-20T15:12:26;2.92;;;2.50;;
62933;SDS011;49038;47.600;19.242;2023-12-20T15:15:28;7.87;;;2.87;;
62933;SDS011;49038;47.600;19.242;2023-12-20T15:18:31;3.30;;;3.00;;
62933;SDS011;49038;47.600;19.242;2023-12-20T15:21:33;3.03;;;2.47;;
62933;SDS011;49038;47.600;19.242;2023-12-20T15:24:44;3.22;;;2.87;;
62933;SDS011;49038;47.600;19.242;2023-12-20T15:27:48;3.05;;;2.75;;
62933;SDS011;49038;47.600;19.242;2023-12-20T15:30:55;4.05;;;3.62;;
62933;SDS011;49038;47.600;19.242;2023-12-20T15:33:58;11.35;;;5.05;;
62933;SDS011;49038;47.600;19.242;2023-12-20T15:37:01;2.67;;;2.47;;
62933;SDS011;49038;47.600;19.242;2023-12-20T15:40:03;3.37;;;3.08;;
62933;SDS011;49038;47.600;19.242;2023-12-20T15:43:07;9.13;;;3.90;;
62933;SDS011;49038;47.600;19.242;2023-12-20T15:46:10;5.85;;;4.00;;
62933;SDS011;49038;47.600;19.242;2023-12-20T15:49:12;5.90;;;4.03;;
62933;SDS011;49038;47.600;19.242;2023-12-20T15:52:14;5.12;;;3.03;;
62933;SDS011;49038;47.600;19.242;2023-12-20T15:55:17;5.32;;;4.15;;
62933;SDS011;49038;47.600;19.242;2023-12-20T15:58:19;4.72;;;3.28;;
62933;SDS011;49038;47.600;19.242;2023-12-20T16:01:21;5.05;;;4.30;;
62933;SDS011;49038;47.600;19.242;2023-12-20T16:04:24;4.45;;;3.87;;
62933;SDS011;49038;47.600;19.242;2023-12-20T16:07:26;2.62;;;2.42;;
62933;SDS011;49038;47.600;19.242;2023-12-20T16:10:28;2.97;;;2.70;;
62933;SDS011;49038;47.600;19.242;2023-12-20T16:13:31;4.22;;;2.95;;
62933;SDS011;49038;47.600;19.242;2023-12-20T16:16:33;2.75;;;2.28;;
62933;SDS011;49038;47.600;19.242;2023-12-20T16:19:35;2.12;;;1.92;;
62933;SDS011;49038;47.600;19.242;2023-12-20T16:22:38;4.80;;;2.62;;
62933;SDS011;49038;47.600;19.242;2023-12-20T16:25:41;3.70;;;2.45;;
62933;SDS011;49038;47.600;19.242;2023-12-20T16:28:43;2.17;;;1.98;;
62933;SDS011;49038;47.600;19.242;2023-12-20T16:31:45;1.95;;;1.77;;
62933;SDS011;49038;47.600;19.242;2023-12-20T16:34:48;2.78;;;2.30;;
62933;SDS011;49038;47.600;19.242;2023-12-20T16:37:51;5.35;;;4.47;;
62933;SDS011;49038;47.600;19.242;2023-12-20T16:40:53;3.10;;;2.62;;
62933;SDS011;49038;47.600;19.242;2023-12-20T16:43:57;3.40;;;2.80;;
62933;SDS011;49038;47.600;19.242;2023-12-20T16:46:59;4.62;;;3.47;;
62933;SDS011;49038;47.600;19.242;2023-12-20T16:50:01;2.83;;;2.50;;
62933;SDS011;49038;47.600;19.242;2023-12-20T16:53:05;3.37;;;2.92;;
62933;SDS011;49038;47.600;19.242;2023-12-20T16:56:07;3.83;;;2.25;;
62933;SDS011;49038;47.600;19.242;2023-12-20T16:59:09;2.58;;;2.00;;
62933;SDS011;49038;47.600;19.242;2023-12-20T17:02:12;4.07;;;3.17;;
62933;SDS011;49038;47.600;19.242;2023-12-20T17:05:14;2.53;;;2.33;;
62933;SDS011;49038;47.600;19.242;2023-12-20T17:08:16;2.10;;;1.92;;
62933;SDS011;49038;47.600;19.242;2023-12-20T17:11:19;2.70;;;2.50;;
62933;SDS011;49038;47.600;19.242;2023-12-20T17:14:23;2.33;;;2.10;;
62933;SDS011;49038;47.600;19.242;2023-12-20T17:17:25;2.87;;;2.67;;
62933;SDS011;49038;47.600;19.242;2023-12-20T17:20:28;3.67;;;2.67;;
62933;SDS011;49038;47.600;19.242;2023-12-20T17:23:30;5.20;;;3.42;;
62933;SDS011;49038;47.600;19.242;2023-12-20T17:26:32;2.25;;;2.05;;
62933;SDS011;49038;47.600;19.242;2023-12-20T17:29:34;5.45;;;3.17;;
62933;SDS011;49038;47.600;19.242;2023-12-20T17:32:37;4.75;;;3.20;;
62933;SDS011;49038;47.600;19.242;2023-12-20T17:35:39;5.28;;;3.75;;
62933;SDS011;49038;47.600;19.242;2023-12-20T17:38:42;5.30;;;3.22;;
62933;SDS011;49038;47.600;19.242;2023-12-20T17:41:44;16.55;;;7.72;;
62933;SDS011;49038;47.600;19.242;2023-12-20T17:44:47;66.45;;;21.08;;
62933;SDS011;49038;47.600;19.242;2023-12-20T17:47:49;98.20;;;30.25;;
62933;SDS011;49038;47.600;19.242;2023-12-20T17:50:52;142.23;;;47.72;;
62933;SDS011;49038;47.600;19.242;2023-12-20T17:53:54;83.40;;;31.52;;
62933;SDS011;49038;47.600;19.242;2023-12-20T17:56:58;25.42;;;13.70;;
62933;SDS011;49038;47.600;19.242;2023-12-20T18:03:20;5.15;;;3.28;;
62933;SDS011;49038;47.600;19.242;2023-12-20T18:06:23;6.00;;;5.00;;
62933;SDS011;49038;47.600;19.242;2023-12-20T18:09:26;9.80;;;6.37;;